NWS Home NWS Lubbock West Texas Mesonet Central Sector Latest Conditions as of 0106 PM, Sat Sep 26, 2020

Latest   N   C   S   Daily Sum   3hrΔ   24hrΔ   Soil Data 
Site Map   24hr Precip   72hr Precip   Google Plot


Station Time of Last Temp Dew Pt. RH Wind Direction Wind Speed Wind Gust Max Wind Max Temp Min Temp Max RH Min RH Altimeter 1HR Rain Today's Rain Solar Rad Red Flag
Abernathy 5ENE  01:00 PM 89 52 28% S1318 27 mph 213° @ 0938 AM 89 59 89 27 29.88" 0 0.00 858  
Aiken 3WSW  01:00 PM 90 54 29% SW1518 26 mph 199° @ 1115 AM 91 63 84 27 29.88" 0 0.00 876  
Amherst 1NE  01:00 PM 93 37 15% SW913 21 mph 187° @ 0940 AM 93 56 78 15 29.88" 0 0.00 845  
Anton 6SSW  01:00 PM 89 51 28% SW1219 21 mph 205° @ 1005 AM 89 56 80 28 29.88" 0 0.00 842  
Aspermont 3NE  01:00 PM 86 66 52% S1319 21 mph 201° @ 1050 AM 86 60 92 52 29.86" 0 0.00 825  
Bootleg 11WNW  01:00 PM 92 27 10% SW57 23 mph 247° @ 0622 AM 93 60 40 10 29.94" 0 0.00 799  
Brownfield 2S  01:00 PM 88 52 28% S1013 21 mph 205° @ 1011 AM 89 57 90 28 29.90" 0 0.00 851  
Caprock Canyons State Park  12:55 PM 93 48 22% S2225 28 mph 235° @ 0955 AM 93 69 68 22 29.83" 0 0.00 898  
Childress 2NNE  01:00 PM 93 56 30% S1522 22 mph 180° @ 0100 PM 93 60 82 30 29.81" 0 0.00 812  
Clarendon 2WSW  01:00 PM 92 52 27% S1724 26 mph 199° @ 1200 PM 92 66 66 27 29.83" 0 0.00 842  
Claude 12SW  01:00 PM 90 47 23% S610 29 mph 192° @ 0236 AM 90 67 64 23 29.86" 0 0.00 875  
Comanche Springs  01:00 PM 89 63 42% S1318 22 mph 188° @ 1044 AM 89 55 98 42 29.83" 0 0.00 856  
Crowell 1E  01:00 PM 87 65 47% S1518 23 mph 203° @ 1035 AM 87 62 88 47 29.83" 0 0.00 828  
Denver City 7WNW  01:00 PM 96 33 11% NW1318 21 mph 289° @ 1250 PM 96 56 94 11 29.91" 0 0.00 899  
Dimmitt 2NE  01:00 PM 87 43 22% SW812 23 mph 198° @ 0940 AM 87 57 69 22 29.89" 0 0.00 839  
Dora NM 2SW  01:00 PM 92 31 12% W1520 27 mph 294° @ 1205 PM 92 61 56 12 29.95" 0 0.00 841  
Earth 9WSW  01:00 PM 92 37 14% W1012 24 mph 186° @ 0149 AM 92 52 88 14 29.90" 0 0.00 892  
Estelline 3SSE  01:00 PM 94 53 25% S1421 24 mph 189° @ 1259 PM 95 59 79 24 29.80" 0 0.00 829  
Floydada 2NNE  01:00 PM 91 49 25% S2129 29 mph 187° @ 0100 PM 91 62 82 25 29.87" 0 0.00 846  
Fluvanna 3WNW  01:00 PM 86 60 43% S1319 21 mph 191° @ 1005 AM 86 65 80 43 29.90" 0 0.00 795  
Friona 2NE  01:00 PM 94 31 11% NW816 21 mph 180° @ 1210 AM 94 52 69 11 29.89" 0 0.00 871  
Gail 2ESE  01:00 PM 89 58 37% S1116 21 mph 186° @ 1015 AM 89 56 90 37 29.88" 0 0.00 815  
Goodlett 3W  01:00 PM 89 61 40% S1420 22 mph 183° @ 1235 PM 90 60 87 40 29.81" 0 0.00 853  
Graham 5SSW  01:00 PM 88 56 36% S1218 28 mph 183° @ 0105 AM 88 66 79 36 29.89" 0 0.00 854  
Guthrie 10WSW  01:00 PM 92 55 30% S1216 25 mph 203° @ 0955 AM 92 65 75 30 29.84" 0 0.00 795  
Hackberry 2SSE  01:00 PM 91 61 37% S1922 25 mph 192° @ 1246 PM 91 64 78 37 29.83" 0 0.00 873  
Happy 1E  01:00 PM 88 50 27% S1114 28 mph 209° @ 0935 AM 89 55 65 27 29.88" 0 0.00 878  
Hart 3N  01:00 PM 86 49 28% S1017 24 mph 199° @ 0930 AM 86 55 75 27 29.89" 0 0.00 862  
Haskell 1NW  01:00 PM 84 66 58% S1319 23 mph 168° @ 1230 PM 84 62 88 58 29.85" 0 0.00 800  
Hefner 1SW  01:00 PM 87 66 50% S1719 24 mph 171° @ 1257 PM 87 63 87 50 29.85" 0 0.00 826  
Hereford 2NW  01:00 PM 91 36 15% SE46 21 mph 180° @ 1220 AM 91 59 63 15 29.88" 0 0.00 844  
Hobbs NM 5NW  01:00 PM 95 30 10% NW1114 18 mph 187° @ 0124 AM 95 58 93 10 29.95" 0 0.00 879  
Jayton 1SSE  01:00 PM 89 62 43% S1118 21 mph 204° @ 1015 AM 90 64 85 42 29.85" 0 0.00 826  
Knox City 3NW  01:00 PM 89 65 45% SE1822 25 mph 168° @ 1258 PM 89 58 91 45 29.83" 0 0.00 862  
Lake Alan Henry 1NW  01:00 PM 89 60 38% SW912 21 mph 206° @ 0511 AM 89 69 73 38 29.86" 0 0.00 815  
Lamesa 2SE  01:00 PM 88 56 35% S913 18 mph 187° @ 0925 AM 88 61 89 35 29.91" 0 0.00 853  
Lesley 2S  01:00 PM 95 56 27% S1520 23 mph 177° @ 1236 PM 96 63 68 27 29.79" 0 0.00 846  
Levelland 4S  01:00 PM 90 50 26% S69 25 mph 205° @ 0936 AM 91 58 79 25 29.89" 0 0.00 851  
Lubbock 3WNW TTU  01:00 PM 91 50 26% S1116 24 mph 211° @ 1005 AM 91 64 86 26 29.88" 0 0.00 848  
McAdoo 3NNW  01:00 PM 88 56 34% S1518 27 mph 204° @ 0913 AM 89 65 79 34 29.89" 0 0.00 847  
Memphis 1NE  01:00 PM 92 51 25% S1219 20 mph 180° @ 1255 PM 92 56 78 25 29.81" 0 0.00 787  
Morton 1ENE  01:00 PM 96 26 8% W1318 19 mph 198° @ 0900 AM 96 60 81 8 29.90" 0 0.00 856  
Muleshoe 2SSW  01:00 PM 94 30 11% W1014 21 mph 187° @ 0130 AM 94 49 80 11 29.89" 0 0.00 885  
New Home  01:00 PM 89 54 31% SW1113 20 mph 212° @ 0954 AM 89 61 91 30 29.91" 0 0.00 851  
Northfield 1S  01:00 PM 96 41 15% S1825 28 mph 193° @ 1250 PM 96 66 66 15 29.80" 0 0.00 818  
O'Donnell 1N  01:00 PM 87 58 39% S1116 19 mph 185° @ 0915 AM 87 64 84 39 29.90" 0 0.00 769  
Odell 4ENE  01:00 PM 87 66 49% S1921 22 mph 172° @ 1234 PM 87 63 91 49 29.83" 0 0.00 845  
Olton 6S  01:00 PM 88 51 30% S1115 24 mph 197° @ 1005 AM 88 57 78 30 29.88" 0 0.00 842  
Paducah 10SW  01:00 PM 93 54 28% S1630 30 mph 178° @ 0100 PM 93 62 76 27 29.82" 0 0.00 828  
Palo Duro 4E (JA Ranch)  01:00 PM 94 54 26% SW2023 29 mph 239° @ 0910 AM 95 57 81 25 29.81" 0 0.00 821  
Palo Duro Canyon SP Floor  01:00 PM 94 49 22% SE814 24 mph 210° @ 1006 AM 94 69 60 21 29.81" 0 0.00 805  
Palo Duro Canyon State Park Rim  01:00 PM 91 48 22% SW1013 28 mph 196° @ 0409 AM 92 63 61 21 29.87" 0 0.00 870  
Plains 3N  01:00 PM 97 30 10% NW1520 23 mph 289° @ 1250 PM 97 58 88 10 29.91" 0 0.00 879  
Plainview 1S  01:00 PM 89 49 26% SW1319 24 mph 222° @ 1015 AM 89 60 88 26 29.87" 0 0.00 835  
Post 1NE  01:00 PM 90 55 32% S1118 25 mph 194° @ 0905 AM 90 68 72 30 29.87" 0 0.00 843  
Ralls 1SE  01:00 PM 89 52 29% S1622 26 mph 199° @ 1240 PM 89 60 82 29 29.89" 0 0.00 824  
Reese Center  01:00 PM 88 51 28% S1315 25 mph 183° @ 1233 PM 89 59 87 28 29.89" 0 0.00 859  
Roaring Springs 3N  01:00 PM 91 50 26% S2026 29 mph 209° @ 0855 AM 91 69 80 26 29.85" 0 0.00 808  
Rotan 5W  01:00 PM 87 66 50% S1419 26 mph 188° @ 1022 AM 87 65 83 49 29.88" 0 0.00 832  
Seagraves 1SW  01:00 PM 88 52 30% SW59 14 mph 201° @ 1010 AM 88 52 83 30 29.91" 0 0.00 797  
Seminole 2NNE  01:00 PM 90 50 26% SW47 12 mph 206° @ 0945 AM 90 57 89 26 29.91" 0 0.00 856  
Seymour 3NW  01:00 PM 88 65 49% S1722 23 mph 193° @ 1155 AM 88 63 92 49 29.83" 0 0.00 744  
Silverton 7ESE  01:00 PM 93 47 22% S2231 31 mph 200° @ 1250 PM 93 65 80 22 29.86" 0 0.00 769  
Slaton 2NE  01:00 PM 89 57 34% S1721 28 mph 210° @ 0952 AM 89 65 82 33 29.88" 0 0.00 888  
Smyer  01:00 PM 88 53 31% S1113 22 mph 209° @ 0949 AM 89 58 86 29 29.89" 0 0.00 896  
Snyder 3E  01:00 PM 86 64 50% S1319 25 mph 180° @ 1240 PM 86 63 87 50 29.89" 0 0.00 781  
Snyder 3SSW  01:00 PM 85 66 52% S1520 23 mph 197° @ 1034 AM 85 63 88 52 29.89" 0 0.00 833  
South Plains 3ENE  01:00 PM 93 52 25% S1722 30 mph 187° @ 1252 PM 93 64 82 25 29.86" 0 0.00 832  
Spur 1W  01:00 PM 89 57 34% SW1117 19 mph 230° @ 1200 PM 90 59 76 34 29.85" 0 0.00 835  
Stamford 5ESE  01:00 PM 83 66 58% S1922 27 mph 183° @ 1120 AM 84 62 90 57 29.87" 0 0.00 846  
Sundown 8WSW  01:00 PM 95 40 15% S1114 18 mph 204° @ 1005 AM 95 53 88 15 29.89" 0 0.00 772  
Tahoka 3NNE  01:00 PM 88 57 34% S1215 22 mph 210° @ 0940 AM 89 62 86 33 29.89" 0 0.00 831  
Tatum NM 2SW  01:00 PM 95 28 9% NW2028 29 mph 293° @ 1135 AM 95 57 82 9 29.95" 0 0.00 854 65
Throckmorton 1SW  01:00 PM 86 68 55% S1114 21 mph 187° @ 1143 AM 86 64 93 55 29.86" 0 0.00 853  
Truscott 2SE  01:00 PM 88 65 46% S1517 26 mph 192° @ 1107 AM 88 61 87 45 29.83" 0 0.00 813  
Tulia 2ENE  01:00 PM 89 50 27% SW1318 26 mph 205° @ 0930 AM 89 61 73 27 29.87" 0 0.00 750  
Turkey 2WSW  01:00 PM 94 52 25% S1722 27 mph 181° @ 1210 PM 94 67 72 25 29.81" 0 0.00 741  
Umbarger 3NNE  01:00 PM 90 42 19% W57 28 mph 198° @ 0110 AM 90 59 69 18 29.88" 0 0.00 841  
Vigo Park  01:00 PM 91 47 23% SW1518 30 mph 213° @ 0954 AM 91 61 80 22 29.87" 0 0.00 781  
Weinert 2NNE  01:00 PM 85 66 53% S1624 24 mph 187° @ 1242 PM 85 64 81 53 29.86" 0 0.00 787  
Welch  01:00 PM 89 52 28% W1012 16 mph 199° @ 0946 AM 89 59 100 28 29.91" 0 0.00 824  
White River Lake 6NW  01:00 PM 89 56 34% S1418 26 mph 197° @ 0918 AM 89 65 82 32 29.86" 0 0.00 880  
Wolfforth 6SSW  01:00 PM 88 50 28% S1115 24 mph 213° @ 1020 AM 88 56 94 27 29.90" 0 0.00 861  

West Texas Mesonet Home   Site Map/Menu  NWS Lubbock Soil Data  Daily Summary Page  24hr Precip  72hr Precip  Google Plot